Time;durP1;ratioP1;P1;durP2;ratioP2;P2;SDS_P1;SDS_P2;PMS_P1;PMS_P2;Temp;Humidity;BMP_temperature;BMP_pressure;BME280_temperature;BME280_humidity;BME280_pressure;Samples;Min_cycle;Max_cycle;Signal;HPM_P1;HPM_P2
2023/05/22 00:00:43;;;;;;;3.08;1.77;;;24.70;52.00;;;;;;5100226;28;20036;-67
2023/05/22 00:03:09;;;;;;;5.50;1.98;;;24.70;52.00;;;;;;5097716;28;20495;-67
2023/05/22 00:05:39;;;;;;;5.68;2.00;;;24.80;52.00;;;;;;5106322;28;20135;-67
2023/05/22 00:08:15;;;;;;;3.08;1.88;;;24.70;52.10;;;;;;5111636;28;20054;-67
2023/05/22 00:10:41;;;;;;;6.30;2.28;;;24.80;52.30;;;;;;5111909;28;20098;-68
2023/05/22 00:13:07;;;;;;;3.67;2.10;;;24.70;52.40;;;;;;5094327;28;20043;-67
2023/05/22 00:15:33;;;;;;;1.95;1.70;;;24.80;52.40;;;;;;5083611;28;20023;-67
2023/05/22 00:17:59;;;;;;;5.43;2.13;;;24.60;52.50;;;;;;5089648;28;20047;-67
2023/05/22 00:20:26;;;;;;;2.92;2.05;;;24.80;52.60;;;;;;5094442;28;20135;-67
2023/05/22 00:22:53;;;;;;;2.80;2.15;;;24.70;52.60;;;;;;5110072;28;20051;-67
2023/05/22 00:25:19;;;;;;;7.55;2.42;;;24.70;52.60;;;;;;5114006;28;20114;-67
2023/05/22 00:27:46;;;;;;;4.20;2.30;;;24.90;52.80;;;;;;5112226;28;20028;-67
2023/05/22 00:30:12;;;;;;;2.05;1.77;;;24.80;52.80;;;;;;5103220;28;20047;-67
2023/05/22 00:32:39;;;;;;;7.65;2.20;;;24.60;52.80;;;;;;5092106;28;20100;-67
2023/05/22 00:35:06;;;;;;;3.92;1.95;;;24.90;53.00;;;;;;5092582;28;20043;-67
2023/05/22 00:37:31;;;;;;;4.07;1.90;;;24.70;53.00;;;;;;5112313;28;20036;-66
2023/05/22 00:39:58;;;;;;;3.92;2.45;;;24.80;53.10;;;;;;5101839;28;20058;-67
2023/05/22 00:42:23;;;;;;;4.10;2.10;;;24.60;53.00;;;;;;5097486;28;20035;-67
2023/05/22 00:44:49;;;;;;;6.13;2.35;;;24.70;53.10;;;;;;5109440;28;20028;-67
2023/05/22 00:47:16;;;;;;;4.93;2.08;;;24.60;53.00;;;;;;5094100;28;20028;-67
2023/05/22 00:49:42;;;;;;;4.35;1.90;;;24.70;53.20;;;;;;5090956;28;20471;-67
2023/05/22 00:52:10;;;;;;;3.95;2.17;;;24.70;53.20;;;;;;5091855;28;20444;-67
2023/05/22 00:54:36;;;;;;;2.35;1.50;;;24.60;53.20;;;;;;5109191;28;20035;-66
2023/05/22 00:57:03;;;;;;;3.40;1.80;;;24.50;53.20;;;;;;5101973;28;20039;-66
2023/05/22 00:59:30;;;;;;;3.55;2.10;;;24.50;53.30;;;;;;5103778;28;20028;-67
2023/05/22 01:01:57;;;;;;;5.35;2.47;;;24.60;53.30;;;;;;5097624;28;20040;-67
2023/05/22 01:04:25;;;;;;;5.28;2.15;;;24.50;53.30;;;;;;5110061;28;20036;-67
2023/05/22 01:06:52;;;;;;;5.20;2.10;;;24.50;53.30;;;;;;5090425;27;20040;-67
2023/05/22 01:09:18;;;;;;;3.67;2.17;;;24.40;53.40;;;;;;5097967;28;20035;-67
2023/05/22 01:11:54;;;;;;;2.45;1.83;;;24.60;53.70;;;;;;5106647;28;20113;-68
2023/05/22 01:14:26;;;;;;;3.92;2.05;;;24.50;53.60;;;;;;5099257;28;20032;-67
2023/05/22 01:17:21;;;;;;;3.15;2.22;;;24.50;53.60;;;;;;5113136;27;20432;-67
2023/05/22 01:20:09;;;;;;;2.28;2.08;;;24.40;53.60;;;;;;5104246;28;20067;-67
2023/05/22 01:22:48;;;;;;;6.85;2.20;;;24.50;53.90;;;;;;5107083;28;20047;-66
2023/05/22 01:25:44;;;;;;;4.00;2.38;;;24.50;54.00;;;;;;5112671;28;20024;-66
2023/05/22 01:28:25;;;;;;;3.15;2.40;;;24.40;54.00;;;;;;5079958;28;20543;-67
2023/05/22 01:31:00;;;;;;;3.05;1.90;;;24.50;54.10;;;;;;5085491;28;20044;-67
2023/05/22 01:33:32;;;;;;;2.20;2.00;;;24.40;54.10;;;;;;5086128;28;20044;-67
2023/05/22 01:36:00;;;;;;;1.80;1.58;;;24.30;54.30;;;;;;5080499;28;20036;-67
2023/05/22 01:38:27;;;;;;;6.43;2.45;;;24.30;54.20;;;;;;5069448;28;20044;-65
2023/05/22 01:40:55;;;;;;;9.30;2.20;;;24.30;54.00;;;;;;5081063;28;20463;-65
2023/05/22 01:43:21;;;;;;;3.63;2.30;;;24.30;54.30;;;;;;5054152;28;20035;-64
2023/05/22 01:45:47;;;;;;;3.15;2.28;;;24.40;54.20;;;;;;5056555;28;20035;-64
2023/05/22 01:48:13;;;;;;;6.40;2.15;;;24.40;54.30;;;;;;5076913;28;20083;-65
2023/05/22 01:50:40;;;;;;;4.68;2.45;;;24.40;54.50;;;;;;5072276;28;20024;-65
2023/05/22 01:53:21;;;;;;;3.03;2.10;;;24.30;54.40;;;;;;5082354;28;20058;-66
2023/05/22 01:55:56;;;;;;;4.70;2.58;;;24.30;54.50;;;;;;5089174;28;20568;-63
2023/05/22 01:59:00;;;;;;;6.43;2.20;;;24.50;54.70;;;;;;5068293;28;20157;-65
2023/05/22 02:01:29;;;;;;;2.53;2.28;;;24.40;54.60;;;;;;5010341;28;20057;-65
2023/05/22 02:03:57;;;;;;;7.15;2.45;;;24.30;54.60;;;;;;5011769;28;20508;-65
2023/05/22 02:06:28;;;;;;;3.55;2.28;;;24.30;54.60;;;;;;5035719;28;20037;-64
2023/05/22 02:08:55;;;;;;;4.20;2.05;;;24.30;54.60;;;;;;5032116;28;20511;-65
2023/05/22 02:11:25;;;;;;;5.53;2.40;;;24.30;54.60;;;;;;5040755;28;20044;-65
2023/05/22 02:13:52;;;;;;;3.25;2.15;;;24.40;54.50;;;;;;5024263;28;20037;-65
2023/05/22 02:16:20;;;;;;;5.93;2.15;;;24.30;54.60;;;;;;5039480;28;20166;-65
2023/05/22 02:18:47;;;;;;;4.78;2.20;;;24.40;54.60;;;;;;5044683;28;20129;-65
2023/05/22 02:21:13;;;;;;;5.05;2.30;;;24.30;54.60;;;;;;5033903;28;20556;-65
2023/05/22 02:23:39;;;;;;;9.25;2.63;;;24.20;54.50;;;;;;5057782;28;20044;-65
2023/05/22 02:26:06;;;;;;;2.50;2.08;;;24.30;54.60;;;;;;5051490;28;20044;-65
2023/05/22 02:28:32;;;;;;;6.60;2.70;;;24.20;54.50;;;;;;5047873;28;20036;-65
2023/05/22 02:30:58;;;;;;;4.15;2.67;;;24.20;54.50;;;;;;5043674;28;20037;-65
2023/05/22 02:33:25;;;;;;;7.78;3.05;;;24.20;54.50;;;;;;5038986;28;20044;-65
2023/05/22 02:35:53;;;;;;;4.88;2.30;;;24.10;54.50;;;;;;5036627;28;20037;-65
2023/05/22 02:38:19;;;;;;;5.15;2.25;;;24.00;54.50;;;;;;5080474;28;20043;-63
2023/05/22 02:40:45;;;;;;;5.05;2.40;;;24.10;54.60;;;;;;5108820;28;20454;-65
2023/05/22 02:43:11;;;;;;;3.53;2.38;;;24.10;54.60;;;;;;5095297;28;20035;-65
2023/05/22 02:45:37;;;;;;;10.10;2.95;;;24.10;54.70;;;;;;5091386;28;20032;-65
2023/05/22 02:48:04;;;;;;;7.90;2.75;;;24.00;54.70;;;;;;5102182;28;20483;-65
2023/05/22 02:50:31;;;;;;;3.05;2.05;;;24.10;54.70;;;;;;5072234;28;20032;-65
2023/05/22 02:52:57;;;;;;;9.02;2.70;;;23.90;54.70;;;;;;5088606;28;20028;-65
2023/05/22 02:55:23;;;;;;;3.50;2.47;;;24.00;54.70;;;;;;5090836;28;20399;-65
2023/05/22 02:57:49;;;;;;;3.45;1.70;;;24.00;54.70;;;;;;5089895;28;20036;-65
2023/05/22 03:00:16;;;;;;;7.78;2.63;;;24.00;54.70;;;;;;5086766;28;20042;-64
2023/05/22 03:02:42;;;;;;;4.90;2.83;;;24.10;54.70;;;;;;5075499;28;20042;-65
2023/05/22 03:05:08;;;;;;;3.28;2.28;;;24.00;54.70;;;;;;5088220;28;20543;-64
2023/05/22 03:07:35;;;;;;;6.40;2.80;;;24.00;54.70;;;;;;5089566;28;20077;-65
2023/05/22 03:10:01;;;;;;;4.50;2.33;;;24.00;54.60;;;;;;5089368;28;20082;-65
2023/05/22 03:12:28;;;;;;;2.83;2.28;;;24.00;54.50;;;;;;5090936;28;20440;-65
2023/05/22 03:14:54;;;;;;;3.13;2.17;;;24.10;54.60;;;;;;5087037;28;20028;-63
2023/05/22 03:17:20;;;;;;;6.10;2.60;;;24.10;54.60;;;;;;5087207;28;20059;-64
2023/05/22 03:19:46;;;;;;;4.25;2.33;;;24.10;54.60;;;;;;5088852;28;20085;-64
2023/05/22 03:22:12;;;;;;;4.10;2.72;;;24.10;54.60;;;;;;5095153;28;20088;-65
2023/05/22 03:24:39;;;;;;;7.22;3.03;;;24.30;54.60;;;;;;5070338;28;20037;-65
2023/05/22 03:27:06;;;;;;;4.65;2.60;;;24.00;54.40;;;;;;5069296;28;20020;-65
2023/05/22 03:29:39;;;;;;;4.55;2.40;;;24.10;54.30;;;;;;5102115;28;20386;-65
2023/05/22 03:32:05;;;;;;;4.35;2.60;;;24.20;54.30;;;;;;5091885;28;20372;-65
2023/05/22 03:34:31;;;;;;;4.82;2.75;;;24.10;54.30;;;;;;5086064;28;20096;-65
2023/05/22 03:36:59;;;;;;;5.65;1.70;;;24.10;54.20;;;;;;5077931;28;20575;-65
2023/05/22 03:39:25;;;;;;;5.85;2.38;;;24.00;54.00;;;;;;5111473;28;20064;-65
2023/05/22 03:41:59;;;;;;;9.07;2.50;;;24.20;54.00;;;;;;5107621;28;20107;-65
2023/05/22 03:44:26;;;;;;;4.40;2.65;;;24.10;53.90;;;;;;5080752;28;20039;-65
2023/05/22 03:46:53;;;;;;;3.58;2.45;;;24.30;54.00;;;;;;5110737;28;20110;-65
2023/05/22 03:49:19;;;;;;;5.38;2.70;;;24.10;53.90;;;;;;5100712;28;20111;-63
2023/05/22 03:51:45;;;;;;;3.13;2.30;;;24.30;54.00;;;;;;5094859;28;20134;-65
2023/05/22 03:54:11;;;;;;;9.18;2.80;;;24.20;54.00;;;;;;5110454;28;20059;-65
2023/05/22 03:56:37;;;;;;;6.82;2.95;;;24.00;53.80;;;;;;5113195;28;20480;-65
2023/05/22 03:59:03;;;;;;;7.78;3.15;;;24.20;54.00;;;;;;5109386;28;20447;-65
2023/05/22 04:01:30;;;;;;;4.90;2.70;;;24.10;54.00;;;;;;5102250;28;20084;-65
2023/05/22 04:03:56;;;;;;;4.70;2.97;;;24.10;54.00;;;;;;5079533;28;20035;-65
2023/05/22 04:06:22;;;;;;;10.93;2.70;;;24.10;54.00;;;;;;5095002;28;20028;-64
2023/05/22 04:08:48;;;;;;;6.45;2.90;;;24.10;53.90;;;;;;5085902;28;20107;-65
2023/05/22 04:11:17;;;;;;;5.88;2.72;;;24.10;53.90;;;;;;5073409;28;20139;-65
2023/05/22 04:13:43;;;;;;;5.50;2.95;;;24.10;53.70;;;;;;5072220;28;20025;-65
2023/05/22 04:16:10;;;;;;;4.03;2.83;;;24.10;53.70;;;;;;5097747;28;20127;-65
2023/05/22 04:18:36;;;;;;;3.85;2.85;;;24.30;53.70;;;;;;5105901;28;20031;-65
2023/05/22 04:21:05;;;;;;;5.47;2.90;;;24.40;53.70;;;;;;5090083;28;20043;-65
2023/05/22 04:23:31;;;;;;;5.22;2.85;;;24.30;53.50;;;;;;5120146;27;20071;-65
2023/05/22 04:26:01;;;;;;;9.02;2.95;;;24.30;53.30;;;;;;5095436;28;20127;-65
2023/05/22 04:28:29;;;;;;;5.00;2.95;;;24.40;53.10;;;;;;5110733;28;20059;-64
2023/05/22 04:30:56;;;;;;;5.60;3.15;;;24.50;53.00;;;;;;5102723;28;20047;-65
2023/05/22 04:33:23;;;;;;;5.90;3.00;;;24.60;53.00;;;;;;5107982;28;20054;-65
2023/05/22 04:35:50;;;;;;;5.25;3.03;;;24.60;53.00;;;;;;5094071;28;20032;-64
2023/05/22 04:38:17;;;;;;;6.30;3.38;;;24.60;53.10;;;;;;5104308;28;20084;-65
2023/05/22 04:40:44;;;;;;;5.80;3.03;;;24.60;53.10;;;;;;5098741;27;20028;-65
2023/05/22 04:43:11;;;;;;;12.05;3.45;;;24.60;53.00;;;;;;5102644;28;20035;-65
2023/05/22 04:45:38;;;;;;;3.85;2.95;;;24.70;53.00;;;;;;5107260;28;20023;-65
2023/05/22 04:48:04;;;;;;;6.85;2.53;;;24.60;53.00;;;;;;5103909;28;20468;-65
2023/05/22 04:50:37;;;;;;;7.95;3.95;;;24.70;53.00;;;;;;5096874;28;20032;-65
2023/05/22 04:53:04;;;;;;;6.60;3.03;;;24.70;53.00;;;;;;5090562;28;20036;-67
2023/05/22 04:55:33;;;;;;;6.60;3.38;;;24.60;52.90;;;;;;5107413;28;20052;-65
2023/05/22 04:58:00;;;;;;;6.45;3.38;;;24.60;53.00;;;;;;5099947;28;20043;-65
2023/05/22 05:00:27;;;;;;;6.30;3.38;;;24.60;53.10;;;;;;5106156;27;20031;-65
2023/05/22 05:02:56;;;;;;;8.93;3.30;;;24.50;53.10;;;;;;5106348;28;20027;-66
2023/05/22 05:05:22;;;;;;;8.52;2.72;;;24.50;53.10;;;;;;5099928;28;20027;-65
2023/05/22 05:07:49;;;;;;;4.40;2.08;;;24.50;52.40;;;;;;5100935;28;20383;-65
2023/05/22 05:10:15;;;;;;;5.03;2.58;;;24.60;52.90;;;;;;5096209;28;20461;-65
2023/05/22 05:12:41;;;;;;;3.70;2.38;;;24.60;53.10;;;;;;5088393;28;20047;-64
2023/05/22 05:15:08;;;;;;;9.85;2.97;;;24.60;53.10;;;;;;5089061;28;20062;-65
2023/05/22 05:17:34;;;;;;;3.95;2.03;;;24.70;52.90;;;;;;5085751;28;20051;-65
2023/05/22 05:20:04;;;;;;;5.47;2.47;;;24.60;53.00;;;;;;5076612;28;20131;-65
2023/05/22 05:22:30;;;;;;;5.30;2.03;;;24.70;52.80;;;;;;5077142;28;20050;-65
2023/05/22 05:24:56;;;;;;;4.07;2.72;;;24.60;53.00;;;;;;5108312;28;20031;-65
2023/05/22 05:27:23;;;;;;;3.47;2.20;;;24.70;53.20;;;;;;5072293;28;20043;-65
2023/05/22 05:29:49;;;;;;;8.50;2.38;;;24.70;53.00;;;;;;5072371;28;20556;-65
2023/05/22 05:32:26;;;;;;;3.75;2.70;;;24.70;53.00;;;;;;5086649;28;20696;-65
2023/05/22 05:34:59;;;;;;;5.97;2.38;;;24.70;53.00;;;;;;5087467;28;20087;-65
2023/05/22 05:37:38;;;;;;;5.10;2.45;;;24.90;52.90;;;;;;5089314;28;20692;-65
2023/05/22 05:40:06;;;;;;;3.22;2.00;;;24.90;53.00;;;;;;5049230;28;20425;-65
2023/05/22 05:42:33;;;;;;;4.00;2.50;;;24.70;52.90;;;;;;5056592;28;20029;-64
2023/05/22 05:45:01;;;;;;;7.50;2.30;;;24.80;53.00;;;;;;5044441;28;20533;-64
2023/05/22 05:47:30;;;;;;;3.40;2.20;;;24.90;53.10;;;;;;5051433;28;20043;-65
2023/05/22 05:49:57;;;;;;;4.50;2.75;;;24.80;52.90;;;;;;5052438;28;20050;-65
2023/05/22 05:52:31;;;;;;;7.35;2.60;;;24.90;53.10;;;;;;5065297;28;20051;-64
2023/05/22 05:54:59;;;;;;;7.30;2.60;;;24.90;52.10;;;;;;5045861;28;20444;-65
2023/05/22 05:57:26;;;;;;;7.30;2.70;;;25.00;52.20;;;;;;5054546;28;20410;-66
2023/05/22 05:59:54;;;;;;;2.50;2.25;;;24.90;48.50;;;;;;5064400;28;20051;-66
2023/05/22 06:02:39;;;;;;;2.38;1.42;;;24.90;48.90;;;;;;5070172;28;20028;-65
2023/05/22 06:05:10;;;;;;;1.38;1.05;;;24.90;50.00;;;;;;5051670;28;20576;-66
2023/05/22 06:07:39;;;;;;;0.63;0.63;;;24.90;54.50;;;;;;5052342;28;20020;-67
2023/05/22 06:10:08;;;;;;;0.22;0.22;;;25.00;54.40;;;;;;5049321;28;20052;-66
2023/05/22 06:12:53;;;;;;;0.65;0.65;;;25.10;54.10;;;;;;5033105;28;20442;-69
2023/05/22 06:15:20;;;;;;;2.40;1.75;;;25.10;52.40;;;;;;5053896;28;20067;-69
2023/05/22 06:17:46;;;;;;;5.53;1.70;;;25.10;52.40;;;;;;5047795;28;20033;-67
2023/05/22 06:20:13;;;;;;;0.73;0.73;;;25.30;54.40;;;;;;5051403;28;20056;-69
2023/05/22 06:22:40;;;;;;;2.22;1.50;;;25.30;51.00;;;;;;5033058;28;20055;-69
2023/05/22 06:25:08;;;;;;;0.55;0.55;;;25.30;51.30;;;;;;5035112;28;20205;-69
2023/05/22 06:27:35;;;;;;;5.35;1.15;;;25.30;49.50;;;;;;5050920;28;20043;-68
2023/05/22 06:30:03;;;;;;;7.28;2.00;;;25.30;46.50;;;;;;5049316;28;20557;-69
2023/05/22 06:32:33;;;;;;;1.15;1.05;;;25.30;45.50;;;;;;5044317;28;20055;-70
2023/05/22 06:35:01;;;;;;;2.65;1.38;;;25.30;44.40;;;;;;5067622;28;20048;-69
2023/05/22 06:37:30;;;;;;;2.15;1.95;;;25.40;44.60;;;;;;5026934;28;20369;-69
2023/05/22 06:39:56;;;;;;;5.60;2.05;;;25.50;46.20;;;;;;5052006;28;20036;-69
2023/05/22 06:42:45;;;;;;;5.07;2.78;;;25.50;46.00;;;;;;5066308;28;20101;-70
2023/05/22 06:45:29;;;;;;;9.90;3.28;;;25.50;40.80;;;;;;5067594;28;20040;-69
2023/05/22 06:48:18;;;;;;;7.22;2.33;;;25.50;41.00;;;;;;5002202;28;20249;-70
2023/05/22 06:51:05;;;;;;;5.82;2.63;;;25.50;42.40;;;;;;5008827;28;20045;-68
2023/05/22 06:53:31;;;;;;;3.92;2.53;;;25.40;40.90;;;;;;5007245;28;20132;-68
2023/05/22 06:55:57;;;;;;;7.50;2.38;;;25.60;42.70;;;;;;5024375;28;20033;-68
2023/05/22 06:58:38;;;;;;;7.22;2.28;;;25.50;43.30;;;;;;5008543;28;20049;-68
2023/05/22 07:01:05;;;;;;;6.88;2.08;;;25.30;43.70;;;;;;5024484;28;20374;-68
2023/05/22 07:03:39;;;;;;;3.35;2.65;;;25.50;43.00;;;;;;5006889;28;20138;-68
2023/05/22 07:06:41;;;;;;;6.55;2.80;;;25.40;42.80;;;;;;5007131;28;20227;-68
2023/05/22 07:09:09;;;;;;;3.30;2.50;;;25.50;43.00;;;;;;4972782;28;20121;-65
2023/05/22 07:11:36;;;;;;;10.85;3.25;;;25.40;43.10;;;;;;4974374;28;20126;-66
2023/05/22 07:14:03;;;;;;;3.40;2.40;;;25.40;42.80;;;;;;4960437;28;20576;-67
2023/05/22 07:16:30;;;;;;;4.95;2.13;;;25.40;43.20;;;;;;4966247;28;20124;-67
2023/05/22 07:18:56;;;;;;;14.00;2.30;;;25.40;43.60;;;;;;5004846;28;20046;-67
2023/05/22 07:21:25;;;;;;;2.92;2.65;;;25.60;44.10;;;;;;4992645;28;20052;-66
2023/05/22 07:23:51;;;;;;;22.80;9.75;;;25.40;44.30;;;;;;4991764;28;20186;-66
2023/05/22 07:26:18;;;;;;;5.82;2.38;;;25.40;44.50;;;;;;5011160;28;20042;-66
2023/05/22 07:28:51;;;;;;;4.03;3.30;;;25.40;44.70;;;;;;5015473;28;20152;-68
2023/05/22 07:31:17;;;;;;;5.60;2.97;;;25.40;44.70;;;;;;5015387;28;20046;-67
2023/05/22 07:33:45;;;;;;;5.50;2.65;;;25.40;44.30;;;;;;5031060;28;20475;-67
2023/05/22 07:36:11;;;;;;;4.47;2.55;;;25.40;45.10;;;;;;5014752;28;20073;-66
2023/05/22 07:38:40;;;;;;;7.70;2.38;;;25.40;44.60;;;;;;5014775;28;20192;-66
2023/05/22 07:41:06;;;;;;;4.55;2.33;;;25.40;45.90;;;;;;5031534;28;20068;-66
2023/05/22 07:43:33;;;;;;;4.47;2.33;;;25.40;46.00;;;;;;5039956;28;20396;-65
2023/05/22 07:45:59;;;;;;;5.63;3.22;;;25.50;47.30;;;;;;5072520;28;20090;-66
2023/05/22 07:48:29;;;;;;;3.30;2.13;;;25.40;47.20;;;;;;5083698;28;20047;-67
2023/05/22 07:50:55;;;;;;;3.22;2.20;;;25.50;46.80;;;;;;5088013;28;20028;-67
2023/05/22 07:53:22;;;;;;;5.10;2.17;;;25.50;46.60;;;;;;5090392;28;20127;-64
2023/05/22 07:55:50;;;;;;;3.97;2.38;;;25.50;46.30;;;;;;5092877;28;20388;-64
2023/05/22 07:58:16;;;;;;;4.78;2.47;;;25.60;46.20;;;;;;5095550;28;20036;-66
2023/05/22 08:00:44;;;;;;;9.30;4.75;;;25.50;45.90;;;;;;5095555;28;20392;-68
2023/05/22 08:03:10;;;;;;;6.72;2.13;;;25.60;46.30;;;;;;5092488;28;20054;-69
2023/05/22 08:05:36;;;;;;;7.30;2.22;;;25.70;46.20;;;;;;5104919;28;20035;-67
2023/05/22 08:08:03;;;;;;;2.72;2.13;;;25.60;46.30;;;;;;5110209;28;20049;-67
2023/05/22 08:10:29;;;;;;;2.40;1.80;;;25.60;46.10;;;;;;5111305;28;20736;-67
2023/05/22 08:12:57;;;;;;;5.82;2.90;;;25.60;46.20;;;;;;5104981;28;20039;-69
2023/05/22 08:15:23;;;;;;;2.70;1.60;;;25.70;45.60;;;;;;5101383;27;20043;-68
2023/05/22 08:17:49;;;;;;;8.20;2.28;;;25.60;45.50;;;;;;5130657;27;20036;-71
2023/05/22 08:20:15;;;;;;;3.25;2.42;;;25.70;45.30;;;;;;5103236;28;20048;-69
2023/05/22 08:22:41;;;;;;;3.45;2.42;;;25.70;44.90;;;;;;5100750;27;20096;-66
2023/05/22 08:25:08;;;;;;;4.93;2.35;;;25.70;44.90;;;;;;5125984;27;20040;-67
2023/05/22 08:27:34;;;;;;;3.78;2.60;;;25.70;44.00;;;;;;5094197;28;20498;-67
2023/05/22 08:30:01;;;;;;;3.15;1.85;;;25.60;44.50;;;;;;5114642;27;20043;-67
2023/05/22 08:32:27;;;;;;;4.25;2.08;;;25.70;44.30;;;;;;5128985;27;20031;-73
2023/05/22 08:34:53;;;;;;;2.28;2.08;;;25.70;44.10;;;;;;5116172;27;20045;-71
2023/05/22 08:37:20;;;;;;;2.78;2.20;;;25.70;43.90;;;;;;5101852;27;20111;-69
2023/05/22 08:39:45;;;;;;;6.35;2.67;;;25.70;43.70;;;;;;5090229;28;20044;-71
2023/05/22 08:42:12;;;;;;;3.90;1.80;;;25.80;43.60;;;;;;5097343;28;20034;-67
2023/05/22 08:44:38;;;;;;;2.25;2.00;;;25.70;43.50;;;;;;5092586;28;20028;-68
2023/05/22 08:47:09;;;;;;;2.92;1.70;;;25.80;42.70;;;;;;5092837;28;20066;-68
2023/05/22 08:49:38;;;;;;;1.90;1.80;;;25.70;43.10;;;;;;5090745;28;20034;-66
2023/05/22 08:52:20;;;;;;;5.32;1.88;;;25.80;43.10;;;;;;5090398;28;20103;-68
2023/05/22 08:54:53;;;;;;;0.85;0.85;;;25.80;42.90;;;;;;5100806;28;20036;-67
2023/05/22 08:57:20;;;;;;;2.47;1.55;;;25.80;42.70;;;;;;5111578;28;20032;-66
2023/05/22 08:59:47;;;;;;;2.92;2.03;;;25.70;42.20;;;;;;5099243;28;20023;-69
2023/05/22 09:02:15;;;;;;;8.85;2.63;;;25.70;42.20;;;;;;5097677;28;20056;-69
2023/05/22 09:04:42;;;;;;;3.08;2.53;;;25.70;42.80;;;;;;5102051;28;20059;-69
2023/05/22 09:07:08;;;;;;;4.05;2.05;;;25.80;42.80;;;;;;5092765;28;20403;-68
2023/05/22 09:09:41;;;;;;;5.43;2.67;;;25.70;42.70;;;;;;5091032;28;20495;-69
2023/05/22 09:12:08;;;;;;;1.73;1.55;;;25.60;43.40;;;;;;5089578;28;20031;-69
2023/05/22 09:14:41;;;;;;;2.40;1.55;;;25.60;43.00;;;;;;5092579;28;20050;-68
2023/05/22 09:17:09;;;;;;;2.92;1.75;;;25.70;43.20;;;;;;5092359;28;20043;-69
2023/05/22 09:19:36;;;;;;;2.65;1.63;;;25.60;43.20;;;;;;5092826;28;20111;-69
2023/05/22 09:22:03;;;;;;;2.78;2.05;;;25.60;43.40;;;;;;5090710;28;20125;-69
2023/05/22 09:24:29;;;;;;;3.13;2.20;;;25.60;43.90;;;;;;5090392;28;20024;-69
2023/05/22 09:26:55;;;;;;;14.82;2.00;;;25.60;44.10;;;;;;5091608;28;20480;-69
2023/05/22 09:29:22;;;;;;;1.63;1.52;;;25.50;44.10;;;;;;5091933;28;20028;-68
2023/05/22 09:31:47;;;;;;;4.05;2.40;;;25.40;44.30;;;;;;5091864;28;20529;-69
2023/05/22 09:34:16;;;;;;;2.67;1.98;;;25.50;44.10;;;;;;5090024;28;20030;-68
2023/05/22 09:36:42;;;;;;;2.10;1.90;;;25.50;44.40;;;;;;5091181;28;20036;-69
2023/05/22 09:39:08;;;;;;;2.92;1.70;;;25.50;44.90;;;;;;5089952;28;20038;-69
2023/05/22 09:41:37;;;;;;;3.85;2.15;;;25.50;45.00;;;;;;5090189;28;20103;-69
2023/05/22 09:44:11;;;;;;;3.65;1.95;;;25.30;44.60;;;;;;5090379;28;20039;-68
2023/05/22 09:46:40;;;;;;;8.00;2.25;;;25.50;45.40;;;;;;5088833;28;20085;-69
2023/05/22 09:49:06;;;;;;;5.57;2.47;;;25.50;45.70;;;;;;5091523;28;20443;-68
2023/05/22 09:51:34;;;;;;;4.68;2.15;;;25.40;45.60;;;;;;5090531;28;20032;-68
2023/05/22 09:54:02;;;;;;;1.73;1.63;;;25.60;45.00;;;;;;5091527;28;20122;-68
2023/05/22 09:56:31;;;;;;;7.25;2.60;;;25.30;44.40;;;;;;5095439;28;20024;-65
2023/05/22 09:58:58;;;;;;;5.43;2.95;;;25.40;44.70;;;;;;5091880;28;20035;-66
2023/05/22 10:01:25;;;;;;;5.43;2.38;;;25.40;45.20;;;;;;5108387;28;20039;-65
2023/05/22 10:03:54;;;;;;;2.72;2.28;;;25.50;46.40;;;;;;5106915;28;20047;-66
2023/05/22 10:06:22;;;;;;;7.07;2.42;;;25.50;44.70;;;;;;5102045;28;20028;-65
2023/05/22 10:08:57;;;;;;;7.63;2.67;;;25.60;44.50;;;;;;5105822;28;20395;-66
2023/05/22 10:11:25;;;;;;;5.55;2.58;;;25.70;45.30;;;;;;5107862;28;20027;-65
2023/05/22 10:13:51;;;;;;;7.28;2.38;;;25.80;47.00;;;;;;5099925;28;20047;-66
2023/05/22 10:16:17;;;;;;;11.20;3.13;;;26.00;46.50;;;;;;5106736;28;20030;-66
2023/05/22 10:18:47;;;;;;;3.20;2.50;;;26.20;45.20;;;;;;5111594;28;20027;-63
2023/05/22 10:21:15;;;;;;;5.22;2.08;;;26.20;45.20;;;;;;5104046;28;20176;-65
2023/05/22 10:23:41;;;;;;;3.40;2.53;;;26.30;43.90;;;;;;5103565;28;20039;-65
2023/05/22 10:26:08;;;;;;;4.95;2.40;;;26.20;43.50;;;;;;5096725;28;20040;-65
2023/05/22 10:28:55;;;;;;;3.83;1.98;;;26.00;43.20;;;;;;5090113;28;20032;-67
2023/05/22 10:31:29;;;;;;;6.20;2.20;;;26.00;42.90;;;;;;5105396;28;20034;-64
2023/05/22 10:34:23;;;;;;;8.88;2.60;;;26.00;43.00;;;;;;5109000;28;20475;-66
2023/05/22 10:37:12;;;;;;;2.65;2.10;;;26.10;46.90;;;;;;5089489;28;20047;-65
2023/05/22 10:40:01;;;;;;;4.00;2.20;;;26.40;45.80;;;;;;5081439;28;20048;-66
2023/05/22 10:42:33;;;;;;;2.45;2.22;;;26.40;46.40;;;;;;5083612;28;20040;-66
2023/05/22 10:45:00;;;;;;;10.52;2.30;;;26.20;45.30;;;;;;5080516;28;20044;-67
2023/05/22 10:47:26;;;;;;;4.13;2.20;;;26.20;43.50;;;;;;5068601;28;20024;-65
2023/05/22 10:50:11;;;;;;;4.97;2.35;;;26.10;44.40;;;;;;5088269;28;20093;-64
2023/05/22 10:52:38;;;;;;;4.25;1.92;;;26.20;44.70;;;;;;5088118;28;20039;-65
2023/05/22 10:55:09;;;;;;;3.67;2.20;;;26.30;45.90;;;;;;5089324;28;20044;-65
2023/05/22 10:57:41;;;;;;;3.65;2.13;;;26.30;44.70;;;;;;5088300;28;20044;-65
2023/05/22 11:00:11;;;;;;;2.90;2.20;;;26.30;46.30;;;;;;5089539;28;20059;-65
2023/05/22 11:02:45;;;;;;;1.88;1.75;;;26.30;47.00;;;;;;5040802;28;20101;-66
2023/05/22 11:05:21;;;;;;;4.03;2.53;;;26.50;48.50;;;;;;5070707;28;20074;-64
2023/05/22 11:07:48;;;;;;;4.03;1.88;;;26.30;48.60;;;;;;5087082;28;20032;-66
2023/05/22 11:10:24;;;;;;;7.70;2.20;;;26.50;48.10;;;;;;5071884;28;20056;-65
2023/05/22 11:13:10;;;;;;;2.28;2.08;;;26.40;48.30;;;;;;5089881;28;20055;-65
2023/05/22 11:15:36;;;;;;;2.45;2.22;;;26.40;48.40;;;;;;5074848;28;20054;-64
2023/05/22 11:18:04;;;;;;;2.33;1.75;;;26.40;48.40;;;;;;5112340;28;20039;-66
2023/05/22 11:20:36;;;;;;;5.13;2.50;;;26.40;48.50;;;;;;5115069;28;20417;-66
2023/05/22 11:23:06;;;;;;;3.92;2.13;;;26.40;48.70;;;;;;5105397;28;20138;-66
2023/05/22 11:25:35;;;;;;;3.50;1.60;;;26.50;48.80;;;;;;5107004;28;20020;-66
2023/05/22 11:28:03;;;;;;;4.15;1.50;;;26.40;48.90;;;;;;5110625;28;20510;-67
2023/05/22 11:30:32;;;;;;;3.00;2.22;;;26.40;49.20;;;;;;5105422;28;20028;-68
2023/05/22 11:32:59;;;;;;;3.10;1.80;;;26.40;49.40;;;;;;5108250;28;20036;-68
2023/05/22 11:35:26;;;;;;;3.58;2.58;;;26.30;49.30;;;;;;5099570;28;20119;-71
2023/05/22 11:37:53;;;;;;;2.50;1.90;;;26.40;49.30;;;;;;5100040;28;20410;-69
2023/05/22 11:40:23;;;;;;;2.75;1.80;;;26.40;49.30;;;;;;5111850;28;20452;-70
2023/05/22 11:42:49;;;;;;;3.45;1.92;;;26.40;49.30;;;;;;5101696;28;20032;-70
2023/05/22 11:45:16;;;;;;;5.82;1.80;;;26.50;49.30;;;;;;5092499;28;20106;-70
2023/05/22 11:47:43;;;;;;;3.67;1.90;;;26.40;49.30;;;;;;5087318;28;20036;-70
2023/05/22 11:50:11;;;;;;;2.65;2.10;;;26.40;49.20;;;;;;5094111;28;20020;-68
2023/05/22 11:52:39;;;;;;;3.47;2.20;;;26.50;45.60;;;;;;5096773;28;20466;-69
2023/05/22 11:55:06;;;;;;;4.50;2.00;;;26.30;48.30;;;;;;5093821;28;20032;-69
2023/05/22 11:57:33;;;;;;;2.65;1.75;;;26.30;44.90;;;;;;5096942;28;20035;-67
2023/05/22 12:00:00;;;;;;;6.50;2.15;;;26.50;48.00;;;;;;5110612;27;20050;-69
2023/05/22 12:02:29;;;;;;;2.13;2.00;;;26.50;48.30;;;;;;5092000;27;20032;-69
2023/05/22 12:04:58;;;;;;;2.08;1.88;;;26.40;45.30;;;;;;5093642;28;20115;-68
2023/05/22 12:07:26;;;;;;;5.75;2.38;;;26.20;46.10;;;;;;5094233;28;20115;-69
2023/05/22 12:09:55;;;;;;;2.42;1.80;;;26.10;41.30;;;;;;5090893;28;20093;-68
2023/05/22 12:12:22;;;;;;;4.75;1.40;;;26.20;48.10;;;;;;5091353;28;20031;-69
2023/05/22 12:14:48;;;;;;;6.53;2.63;;;26.10;47.60;;;;;;5102686;28;20036;-70
2023/05/22 12:17:15;;;;;;;3.35;1.98;;;26.10;48.50;;;;;;5110590;28;20124;-70
2023/05/22 12:19:42;;;;;;;3.20;2.53;;;26.20;48.80;;;;;;5112621;28;20039;-69
2023/05/22 12:22:10;;;;;;;2.92;1.88;;;26.20;45.20;;;;;;5109938;28;20138;-68
2023/05/22 12:24:47;;;;;;;17.08;6.18;;;26.00;46.40;;;;;;5112278;28;20031;-70
2023/05/22 12:27:13;;;;;;;5.88;3.45;;;26.10;47.80;;;;;;5079527;28;20425;-68
2023/05/22 12:29:41;;;;;;;5.20;2.05;;;26.10;48.10;;;;;;5110362;28;20494;-70
2023/05/22 12:32:11;;;;;;;2.72;2.08;;;26.10;47.80;;;;;;5108003;28;20055;-69
2023/05/22 12:34:45;;;;;;;2.08;1.77;;;26.00;45.90;;;;;;5103237;28;20035;-68
2023/05/22 12:37:27;;;;;;;6.28;2.20;;;26.00;48.20;;;;;;5097221;28;20372;-71
2023/05/22 12:39:57;;;;;;;3.22;2.00;;;26.20;46.80;;;;;;5109735;28;20073;-70
2023/05/22 12:42:24;;;;;;;2.60;2.08;;;26.20;46.40;;;;;;5107061;28;20035;-70
2023/05/22 12:44:55;;;;;;;2.47;1.88;;;26.00;45.60;;;;;;5110786;28;20503;-69
2023/05/22 12:47:23;;;;;;;2.38;2.08;;;26.00;46.40;;;;;;5100145;28;20031;-69
2023/05/22 12:49:49;;;;;;;2.78;2.20;;;26.20;47.90;;;;;;5092944;28;20142;-69
2023/05/22 12:52:16;;;;;;;3.53;2.38;;;26.00;47.70;;;;;;5093858;28;20048;-71
2023/05/22 12:54:42;;;;;;;3.03;1.98;;;26.00;42.70;;;;;;5098463;28;20028;-69